Weather at Abu ad Duhur Air Base

Public forecast

Using degrees Celsius for public forecast. Weather courtesy of forecast.io.

Closest aviation weather report (METAR) to Abu ad Duhur Air Base

Report is more than 6 hours old.

Closest report is Aleppo International Airport, 27.6 nm (51.0 km) NNE.

2024/04/23 21:00 (retrieved 18 hours ago)

OSAP 232100Z 26004KT CAVOK 19/11 Q1018

Closest aviation forecast (TAF) to Abu ad Duhur Air Base

Forecast is more than 6 hours old.

Closest forecast is Aleppo International Airport, 27.6 nm (51.0 km) NNE.

2024/04/24 06:00 (retrieved 9 hours ago)

TAF OSAP 240445Z 2406/2506 12008KT 9999 FEW030 BECMG 2414/2416 VRB03KT CAVOK